createdAt,value
2023-04-13T00:00:39.981Z,5.28
2023-04-13T00:03:08.955Z,3.60
2023-04-13T00:05:37.842Z,6.30
2023-04-13T00:08:06.088Z,4.53
2023-04-13T00:10:36.641Z,7.75
2023-04-13T00:13:05.027Z,5.63
2023-04-13T00:15:34.717Z,4.63
2023-04-13T00:18:02.643Z,5.35
2023-04-13T00:20:30.521Z,6.47
2023-04-13T00:22:58.093Z,9.95
2023-04-13T00:25:25.686Z,7.38
2023-04-13T00:27:54.679Z,6.75
2023-04-13T00:30:23.034Z,5.40
2023-04-13T00:32:50.696Z,7.03
2023-04-13T00:35:19.913Z,6.35
2023-04-13T00:37:48.140Z,6.78
2023-04-13T00:40:17.955Z,5.82
2023-04-13T00:42:46.174Z,5.82
2023-04-13T00:45:16.221Z,7.53
2023-04-13T00:47:46.723Z,7.10
2023-04-13T00:50:17.463Z,8.98
2023-04-13T00:52:46.151Z,6.55
2023-04-13T00:55:14.503Z,7.07
2023-04-13T00:57:42.452Z,6.82
2023-04-13T01:00:11.006Z,7.65
2023-04-13T01:02:42.317Z,6.95
2023-04-13T01:05:15.222Z,8.50
2023-04-13T01:07:52.032Z,6.47
2023-04-13T01:10:25.692Z,9.52
2023-04-13T01:13:09.528Z,10.23
2023-04-13T01:15:47.641Z,7.53
2023-04-13T01:18:19.364Z,7.20
2023-04-13T01:20:48.290Z,7.97
2023-04-13T01:23:28.388Z,5.68
2023-04-13T01:26:00.615Z,7.97
2023-04-13T01:28:30.433Z,7.47
2023-04-13T01:31:00.389Z,10.15
2023-04-13T01:33:30.633Z,10.60
2023-04-13T01:36:00.624Z,10.60
2023-04-13T01:38:29.892Z,9.32
2023-04-13T01:40:59.091Z,9.13
2023-04-13T01:43:30.560Z,9.82
2023-04-13T01:46:06.698Z,10.88
2023-04-13T01:48:45.919Z,9.68
2023-04-13T01:51:25.821Z,12.00
2023-04-13T01:54:02.476Z,9.80
2023-04-13T01:56:30.742Z,12.18
2023-04-13T01:59:05.304Z,12.68
2023-04-13T02:01:32.970Z,9.68
2023-04-13T02:04:01.770Z,9.02
2023-04-13T02:06:31.917Z,7.60
2023-04-13T02:09:01.236Z,10.88
2023-04-13T02:11:29.185Z,11.30
2023-04-13T02:13:58.114Z,10.13
2023-04-13T02:16:28.360Z,9.45
2023-04-13T02:18:58.222Z,13.65
2023-04-13T02:21:26.720Z,11.07
2023-04-13T02:23:54.341Z,10.90
2023-04-13T02:26:26.072Z,10.43
2023-04-13T02:28:53.698Z,14.15
2023-04-13T02:31:23.310Z,10.90
2023-04-13T02:33:52.602Z,12.30
2023-04-13T02:36:20.277Z,15.20
2023-04-13T02:38:55.488Z,13.45
2023-04-13T02:41:27.092Z,14.00
2023-04-13T02:43:54.851Z,12.48
2023-04-13T02:46:25.174Z,16.63
2023-04-13T02:49:00.163Z,14.75
2023-04-13T02:51:32.224Z,10.88
2023-04-13T02:53:59.955Z,15.55
2023-04-13T02:56:28.407Z,15.35
2023-04-13T02:58:59.703Z,14.10
2023-04-13T03:01:29.438Z,12.30
2023-04-13T03:03:57.422Z,11.13
2023-04-13T03:06:29.170Z,14.70
2023-04-13T03:09:00.918Z,12.55
2023-04-13T03:11:34.995Z,16.65
2023-04-13T03:14:13.053Z,12.73
2023-04-13T03:16:41.692Z,15.35
2023-04-13T03:19:10.370Z,11.52
2023-04-13T03:21:42.772Z,12.95
2023-04-13T03:24:14.542Z,12.40
2023-04-13T03:26:42.327Z,13.18
2023-04-13T03:29:14.901Z,14.20
2023-04-13T03:31:45.853Z,14.85
2023-04-13T03:34:13.752Z,11.63
2023-04-13T03:36:45.014Z,14.45
2023-04-13T03:39:12.887Z,14.05
2023-04-13T03:41:40.581Z,15.20
2023-04-13T03:44:10.007Z,17.73
2023-04-13T03:46:38.966Z,15.80
2023-04-13T03:49:18.107Z,14.32
2023-04-13T03:51:47.085Z,12.95
2023-04-13T03:54:15.389Z,11.60
2023-04-13T03:56:43.146Z,16.80
2023-04-13T03:59:10.971Z,14.68
2023-04-13T04:01:38.648Z,12.98
2023-04-13T04:04:06.713Z,15.23
2023-04-13T04:06:34.487Z,13.52
2023-04-13T04:09:13.493Z,12.13
2023-04-13T04:11:45.504Z,14.43
2023-04-13T04:14:14.776Z,15.45
2023-04-13T04:16:51.006Z,17.98
2023-04-13T04:19:19.749Z,13.95
2023-04-13T04:21:49.845Z,17.67
2023-04-13T04:24:22.529Z,15.77
2023-04-13T04:26:55.085Z,14.60
2023-04-13T04:29:29.801Z,30.25
2023-04-13T04:31:58.999Z,16.05
2023-04-13T04:34:26.731Z,16.58
2023-04-13T04:36:57.011Z,13.43
2023-04-13T04:39:32.725Z,17.35
2023-04-13T04:42:10.854Z,13.80
2023-04-13T04:44:39.993Z,16.38
2023-04-13T04:47:10.218Z,19.27
2023-04-13T04:49:57.806Z,19.02
2023-04-13T04:52:26.222Z,16.30
2023-04-13T04:54:56.171Z,14.00
2023-04-13T04:57:24.581Z,15.77
2023-04-13T04:59:52.185Z,13.35
2023-04-13T05:02:20.202Z,15.13
2023-04-13T05:04:48.138Z,16.63
2023-04-13T05:07:17.774Z,21.30
2023-04-13T05:09:45.495Z,14.80
2023-04-13T05:12:14.601Z,15.38
2023-04-13T05:14:48.160Z,16.08
2023-04-13T05:17:18.119Z,18.67
2023-04-13T05:19:46.021Z,10.85
2023-04-13T05:22:24.250Z,14.75
2023-04-13T05:24:58.161Z,17.33
2023-04-13T05:27:27.653Z,12.52
2023-04-13T05:29:57.601Z,14.88
2023-04-13T05:32:26.497Z,11.93
2023-04-13T05:34:57.081Z,12.88
2023-04-13T05:37:27.329Z,15.10
2023-04-13T05:39:55.583Z,12.18
2023-04-13T05:42:31.147Z,11.57
2023-04-13T05:44:59.697Z,11.18
2023-04-13T05:47:30.072Z,13.65
2023-04-13T05:50:04.061Z,15.48
2023-04-13T05:52:32.206Z,10.25
2023-04-13T05:54:59.936Z,9.80
2023-04-13T05:57:28.166Z,10.68
2023-04-13T05:59:58.000Z,8.75
2023-04-13T06:02:32.134Z,8.30
2023-04-13T06:05:01.938Z,8.90
2023-04-13T06:07:29.851Z,8.73
2023-04-13T06:09:57.515Z,7.95
2023-04-13T06:12:25.821Z,6.47
2023-04-13T06:14:53.823Z,6.50
2023-04-13T06:17:23.015Z,9.43
2023-04-13T06:19:51.887Z,7.55
2023-04-13T06:22:19.597Z,6.93
2023-04-13T06:24:47.541Z,6.10
2023-04-13T06:27:15.567Z,8.63
2023-04-13T06:29:46.730Z,7.00
2023-04-13T06:32:14.534Z,8.07
2023-04-13T06:34:45.770Z,9.15
2023-04-13T06:37:14.257Z,6.25
2023-04-13T06:39:47.356Z,7.40
2023-04-13T06:42:16.332Z,7.70
2023-04-13T06:45:09.079Z,34.63
2023-04-13T06:47:41.867Z,9.93
2023-04-13T06:50:15.718Z,8.00
2023-04-13T06:52:44.991Z,8.65
2023-04-13T06:55:13.163Z,8.40
2023-04-13T06:57:42.709Z,5.88
2023-04-13T07:00:28.151Z,8.98
2023-04-13T07:02:58.692Z,5.82
2023-04-13T07:05:28.236Z,6.22
2023-04-13T07:08:01.783Z,7.93
2023-04-13T07:10:30.430Z,5.65
2023-04-13T07:13:03.009Z,6.07
2023-04-13T07:15:32.585Z,4.38
2023-04-13T07:18:00.630Z,8.48
2023-04-13T07:20:29.886Z,6.72
2023-04-13T07:22:57.789Z,4.82
2023-04-13T07:25:25.733Z,5.00
2023-04-13T07:27:53.630Z,5.20
2023-04-13T07:30:23.081Z,6.88
2023-04-13T07:32:52.141Z,6.38
2023-04-13T07:35:21.508Z,6.15
2023-04-13T07:37:53.801Z,4.43
2023-04-13T07:40:22.877Z,5.15
2023-04-13T07:42:53.985Z,4.63
2023-04-13T07:45:22.313Z,4.20
2023-04-13T07:47:50.604Z,6.07
2023-04-13T07:50:18.808Z,4.20
2023-04-13T07:52:47.874Z,3.33
2023-04-13T07:55:18.945Z,2.67
2023-04-13T07:57:50.822Z,3.00
2023-04-13T08:00:21.098Z,4.45
2023-04-13T08:02:52.543Z,4.35
2023-04-13T08:05:23.968Z,4.10
2023-04-13T08:07:52.949Z,2.42
2023-04-13T08:10:22.374Z,4.63
2023-04-13T08:12:50.142Z,6.93
2023-04-13T08:15:20.805Z,11.07
2023-04-13T08:17:48.935Z,6.15
2023-04-13T08:20:18.536Z,8.35
2023-04-13T08:22:46.871Z,3.20
2023-04-13T08:25:15.505Z,8.70
2023-04-13T08:27:44.909Z,5.07
2023-04-13T08:30:14.783Z,4.13
2023-04-13T08:32:53.729Z,3.15
2023-04-13T08:35:22.228Z,8.50
2023-04-13T08:37:49.901Z,9.90
2023-04-13T08:40:19.966Z,5.85
2023-04-13T08:42:49.700Z,5.47
2023-04-13T08:45:19.328Z,6.22
2023-04-13T08:47:49.592Z,8.23
2023-04-13T08:50:19.728Z,2.20
2023-04-13T08:52:51.291Z,3.95
2023-04-13T08:55:19.059Z,3.80
2023-04-13T08:57:51.883Z,3.22
2023-04-13T09:00:21.857Z,3.08
2023-04-13T09:03:04.569Z,2.78
2023-04-13T09:05:36.683Z,6.80
2023-04-13T09:08:07.892Z,5.72
2023-04-13T09:10:37.937Z,2.88
2023-04-13T09:13:07.613Z,6.53
2023-04-13T09:15:35.517Z,1.77
2023-04-13T09:18:17.186Z,3.00
2023-04-13T09:20:57.899Z,2.15
2023-04-13T09:23:26.204Z,3.65
2023-04-13T09:26:06.150Z,6.35
2023-04-13T09:28:38.279Z,6.38
2023-04-13T09:31:06.487Z,3.00
2023-04-13T09:33:44.587Z,3.03
2023-04-13T09:36:13.122Z,2.03
2023-04-13T09:38:41.028Z,2.45
2023-04-13T09:41:08.963Z,2.67
2023-04-13T09:43:38.816Z,2.83
2023-04-13T09:46:13.233Z,4.22
2023-04-13T09:48:41.668Z,2.38
2023-04-13T09:51:10.766Z,2.67
2023-04-13T09:53:43.495Z,2.47
2023-04-13T09:56:11.302Z,2.83
2023-04-13T09:58:43.711Z,3.03
2023-04-13T10:01:11.696Z,2.70
2023-04-13T10:03:40.000Z,1.75
2023-04-13T10:06:08.949Z,1.95
2023-04-13T10:08:39.218Z,2.28
2023-04-13T10:11:11.814Z,2.33
2023-04-13T10:13:50.594Z,2.92
2023-04-13T10:16:41.629Z,2.50
2023-04-13T10:19:12.405Z,3.50
2023-04-13T10:21:41.817Z,3.53
2023-04-13T10:24:12.670Z,4.22
2023-04-13T10:26:42.212Z,2.42
2023-04-13T10:29:14.000Z,3.83
2023-04-13T10:31:46.922Z,3.70
2023-04-13T10:34:25.618Z,2.63
2023-04-13T10:36:55.293Z,4.10
2023-04-13T10:39:27.476Z,3.33
2023-04-13T10:42:02.384Z,2.60
2023-04-13T10:44:41.974Z,3.03
2023-04-13T10:47:11.248Z,5.53
2023-04-13T10:49:39.443Z,2.95
2023-04-13T10:52:07.338Z,2.42
2023-04-13T10:54:36.383Z,3.30
2023-04-13T10:57:06.580Z,2.30
2023-04-13T10:59:53.517Z,2.65
2023-04-13T11:02:26.954Z,1.60
2023-04-13T11:04:55.144Z,3.13
2023-04-13T11:07:26.014Z,2.28
2023-04-13T11:10:02.968Z,2.13
2023-04-13T11:12:31.392Z,1.70
2023-04-13T11:15:00.921Z,1.83
2023-04-13T11:17:28.769Z,3.42
2023-04-13T11:19:58.128Z,1.30
2023-04-13T11:22:27.910Z,3.42
2023-04-13T11:25:07.283Z,5.43
2023-04-13T11:27:34.914Z,1.65
2023-04-13T11:30:06.887Z,3.95
2023-04-13T11:32:35.155Z,1.48
2023-04-13T11:35:08.083Z,1.50
2023-04-13T11:37:39.447Z,1.48
2023-04-13T11:40:14.569Z,2.25
2023-04-13T11:42:44.289Z,1.58
2023-04-13T11:45:15.783Z,1.73
2023-04-13T11:47:43.859Z,3.78
2023-04-13T11:50:15.655Z,3.20
2023-04-13T11:52:44.909Z,2.10
2023-04-13T11:55:22.365Z,2.42
2023-04-13T11:57:51.094Z,2.35
2023-04-13T12:00:24.578Z,2.90
2023-04-13T12:03:01.767Z,3.25
2023-04-13T12:05:33.157Z,1.58
2023-04-13T12:08:13.424Z,3.05
2023-04-13T12:10:51.855Z,2.80
2023-04-13T12:16:08.530Z,1.67
2023-04-13T12:18:44.159Z,2.92
2023-04-13T12:21:17.316Z,1.75
2023-04-13T12:23:53.776Z,3.95
2023-04-13T12:28:56.536Z,3.00
2023-04-13T12:31:25.941Z,1.92
2023-04-13T12:33:53.607Z,3.55
2023-04-13T12:36:21.776Z,1.50
2023-04-13T12:38:49.509Z,2.53
2023-04-13T12:41:17.224Z,1.88
2023-04-13T12:43:44.884Z,3.13
2023-04-13T12:46:12.588Z,2.42
2023-04-13T12:48:41.783Z,2.75
2023-04-13T12:51:09.615Z,2.30
2023-04-13T12:53:37.424Z,6.80
2023-04-13T12:56:05.461Z,1.70
2023-04-13T12:58:33.617Z,2.15
2023-04-13T13:01:01.369Z,3.20
2023-04-13T13:03:29.263Z,2.40
2023-04-13T13:06:00.118Z,2.03
2023-04-13T13:08:27.845Z,2.88
2023-04-13T13:10:55.712Z,2.28
2023-04-13T13:13:23.388Z,2.35
2023-04-13T13:15:51.123Z,1.80
2023-04-13T13:18:18.839Z,2.80
2023-04-13T13:20:49.178Z,2.70
2023-04-13T13:23:19.527Z,2.20
2023-04-13T13:25:57.428Z,2.30
2023-04-13T13:28:34.963Z,2.80
2023-04-13T13:31:02.752Z,2.30
2023-04-13T13:33:30.480Z,2.05
2023-04-13T13:35:58.259Z,1.90
2023-04-13T13:38:28.048Z,4.10
2023-04-13T13:40:56.030Z,1.70
2023-04-13T13:43:23.919Z,2.55
2023-04-13T13:45:51.979Z,3.08
2023-04-13T13:48:21.654Z,1.70
2023-04-13T13:50:57.622Z,2.72
2023-04-13T13:53:28.749Z,2.60
2023-04-13T13:55:57.153Z,1.92
2023-04-13T13:58:24.910Z,3.05
2023-04-13T14:00:52.753Z,3.15
2023-04-13T14:03:20.894Z,2.80
2023-04-13T14:05:49.011Z,3.97
2023-04-13T14:08:16.791Z,2.50
2023-04-13T14:10:48.622Z,2.08
2023-04-13T14:13:16.953Z,2.33
2023-04-13T14:15:44.816Z,2.35
2023-04-13T14:18:12.492Z,1.42
2023-04-13T14:20:40.713Z,3.03
2023-04-13T14:23:09.564Z,1.27
2023-04-13T14:25:38.776Z,1.88
2023-04-13T14:28:08.983Z,1.58
2023-04-13T14:30:36.820Z,1.45
2023-04-13T14:33:05.576Z,2.08
2023-04-13T14:35:33.353Z,1.98
2023-04-13T14:38:01.876Z,0.52
2023-04-13T14:40:29.774Z,1.30
2023-04-13T14:42:57.517Z,0.77
2023-04-13T14:45:26.746Z,1.13
2023-04-13T14:47:54.702Z,0.60
2023-04-13T14:50:22.909Z,1.70
2023-04-13T14:52:51.106Z,1.42
2023-04-13T14:55:19.265Z,3.72
2023-04-13T14:57:47.093Z,1.95
2023-04-13T15:00:21.690Z,2.33
2023-04-13T15:02:52.471Z,3.22
2023-04-13T15:05:20.935Z,3.03
2023-04-13T15:07:50.682Z,4.50
2023-04-13T15:10:18.970Z,2.95
2023-04-13T15:12:48.120Z,3.00
2023-04-13T15:15:15.922Z,2.53
2023-04-13T15:17:43.896Z,3.00
2023-04-13T15:20:13.423Z,3.67
2023-04-13T15:22:41.257Z,1.30
2023-04-13T15:25:09.595Z,1.58
2023-04-13T15:27:37.397Z,2.33
2023-04-13T15:30:05.966Z,2.92
2023-04-13T15:32:35.135Z,2.22
2023-04-13T15:35:03.373Z,5.20
2023-04-13T15:37:32.731Z,3.25
2023-04-13T15:40:01.390Z,3.90
2023-04-13T15:42:29.479Z,2.35
2023-04-13T15:44:57.105Z,2.65
2023-04-13T15:47:24.876Z,2.63
2023-04-13T15:49:52.650Z,2.42
2023-04-13T15:52:20.462Z,2.53
2023-04-13T15:54:49.584Z,1.13
2023-04-13T15:57:17.755Z,1.15
2023-04-13T15:59:45.669Z,2.38
2023-04-13T16:02:14.560Z,1.17
2023-04-13T16:04:42.539Z,1.73
2023-04-13T16:07:14.156Z,2.40
2023-04-13T16:09:44.977Z,2.33
2023-04-13T16:12:14.336Z,3.45
2023-04-13T16:14:44.710Z,2.00
2023-04-13T16:17:13.170Z,2.42
2023-04-13T16:19:40.845Z,1.63
2023-04-13T16:22:10.775Z,1.92
2023-04-13T16:24:38.558Z,1.67
2023-04-13T16:27:07.317Z,2.55
2023-04-13T16:29:36.628Z,2.55
2023-04-13T16:32:04.310Z,5.63
2023-04-13T16:34:31.985Z,0.73
2023-04-13T16:36:59.566Z,0.70
2023-04-13T16:39:27.446Z,0.70
2023-04-13T16:41:55.075Z,3.50
2023-04-13T16:44:22.781Z,1.20
2023-04-13T16:46:51.912Z,0.93
2023-04-13T16:49:19.640Z,2.50
2023-04-13T16:51:48.363Z,3.85
2023-04-13T16:54:17.811Z,1.33
2023-04-13T16:56:45.560Z,1.33
2023-04-13T16:59:13.355Z,0.98
2023-04-13T17:01:41.045Z,2.47
2023-04-13T17:04:10.367Z,2.85
2023-04-13T17:06:39.116Z,4.05
2023-04-13T17:09:07.206Z,2.20
2023-04-13T17:11:35.465Z,3.88
2023-04-13T17:14:03.170Z,2.03
2023-04-13T17:16:30.816Z,2.92
2023-04-13T17:18:59.079Z,1.75
2023-04-13T17:21:28.787Z,2.33
2023-04-13T17:23:56.399Z,1.70
2023-04-13T17:26:24.019Z,3.95
2023-04-13T17:28:52.307Z,2.30
2023-04-13T17:31:20.053Z,3.60
2023-04-13T17:33:50.321Z,2.47
2023-04-13T17:36:18.852Z,4.50
2023-04-13T17:38:47.923Z,3.58
2023-04-13T17:41:15.613Z,5.25
2023-04-13T17:43:43.195Z,6.47
2023-04-13T17:46:12.293Z,4.57
2023-04-13T17:48:40.529Z,3.42
2023-04-13T17:51:11.368Z,3.75
2023-04-13T17:53:39.377Z,4.07
2023-04-13T17:56:09.193Z,5.28
2023-04-13T17:58:36.843Z,7.57
2023-04-13T18:01:08.506Z,3.75
2023-04-13T18:03:36.455Z,4.50
2023-04-13T18:06:05.395Z,5.07
2023-04-13T18:08:33.081Z,12.82
2023-04-13T18:11:00.823Z,13.02
2023-04-13T18:13:31.516Z,12.70
2023-04-13T18:15:59.347Z,6.93
2023-04-13T18:18:27.227Z,7.70
2023-04-13T18:20:54.938Z,7.43
2023-04-13T18:23:23.005Z,7.38
2023-04-13T18:25:51.392Z,5.53
2023-04-13T18:28:19.092Z,5.88
2023-04-13T18:30:48.886Z,6.65
2023-04-13T18:33:16.694Z,6.53
2023-04-13T18:35:45.772Z,6.03
2023-04-13T18:38:13.514Z,6.72
2023-04-13T18:40:41.648Z,6.32
2023-04-13T18:43:09.435Z,7.55
2023-04-13T18:45:37.223Z,6.50
2023-04-13T18:48:07.408Z,5.13
2023-04-13T18:50:35.328Z,5.07
2023-04-13T18:53:03.029Z,8.43
2023-04-13T18:55:31.400Z,7.80
2023-04-13T18:57:59.249Z,7.35
2023-04-13T19:00:27.006Z,8.15
2023-04-13T19:02:57.166Z,7.15
2023-04-13T19:05:27.756Z,5.68
2023-04-13T19:07:58.632Z,6.60
2023-04-13T19:10:27.930Z,6.22
2023-04-13T19:12:56.552Z,7.53
2023-04-13T19:15:24.654Z,4.65
2023-04-13T19:17:53.144Z,4.55
2023-04-13T19:20:23.119Z,4.28
2023-04-13T19:22:52.558Z,3.72
2023-04-13T19:25:20.504Z,3.10
2023-04-13T19:27:50.202Z,2.28
2023-04-13T19:30:19.577Z,3.88
2023-04-13T19:32:49.665Z,3.78
2023-04-13T19:35:18.172Z,3.30
2023-04-13T19:37:46.078Z,3.00
2023-04-13T19:40:15.324Z,3.08
2023-04-13T19:42:44.485Z,2.80
2023-04-13T19:45:13.760Z,3.47
2023-04-13T19:47:42.270Z,6.20
2023-04-13T19:50:12.149Z,3.47
2023-04-13T19:52:41.431Z,6.00
2023-04-13T19:55:10.837Z,4.22
2023-04-13T19:57:42.776Z,3.50
2023-04-13T20:00:18.939Z,4.30
2023-04-13T20:02:47.998Z,3.83
2023-04-13T20:05:16.872Z,5.68
2023-04-13T20:07:44.652Z,3.10
2023-04-13T20:10:13.409Z,3.58
2023-04-13T20:12:42.385Z,3.47
2023-04-13T20:15:10.671Z,3.95
2023-04-13T20:17:38.371Z,3.47
2023-04-13T20:20:08.209Z,5.78
2023-04-13T20:22:36.079Z,3.70
2023-04-13T20:25:03.722Z,4.88
2023-04-13T20:27:31.294Z,3.97
2023-04-13T20:30:00.355Z,3.00
2023-04-13T20:32:27.997Z,3.10
2023-04-13T20:34:56.070Z,5.38
2023-04-13T20:37:23.745Z,4.13
2023-04-13T20:39:52.810Z,5.07
2023-04-13T20:42:21.813Z,7.53
2023-04-13T20:44:57.064Z,4.82
2023-04-13T20:47:27.213Z,6.53
2023-04-13T20:49:57.441Z,7.05
2023-04-13T20:52:25.872Z,6.47
2023-04-13T20:54:54.494Z,7.75
2023-04-13T20:57:22.348Z,8.05
2023-04-13T20:59:51.742Z,7.25
2023-04-13T21:02:19.469Z,8.57
2023-04-13T21:04:48.507Z,8.13
2023-04-13T21:07:16.425Z,7.75
2023-04-13T21:09:44.418Z,7.60
2023-04-13T21:12:12.216Z,5.88
2023-04-13T21:14:39.992Z,9.07
2023-04-13T21:17:07.635Z,7.80
2023-04-13T21:19:37.652Z,9.23
2023-04-13T21:22:07.044Z,7.63
2023-04-13T21:24:34.853Z,8.07
2023-04-13T21:27:02.831Z,8.82
2023-04-13T21:29:30.448Z,5.85
2023-04-13T21:31:58.152Z,7.80
2023-04-13T21:34:27.204Z,7.90
2023-04-13T21:36:55.049Z,7.80
2023-04-13T21:39:24.154Z,6.60
2023-04-13T21:41:51.794Z,6.57
2023-04-13T21:44:29.327Z,9.00
2023-04-13T21:46:58.390Z,8.95
2023-04-13T21:49:26.397Z,6.70
2023-04-13T21:51:54.003Z,6.10
2023-04-13T21:54:21.676Z,7.20
2023-04-13T21:56:50.919Z,9.63
2023-04-13T21:59:18.757Z,7.70
2023-04-13T22:01:49.625Z,7.28
2023-04-13T22:04:17.403Z,9.30
2023-04-13T22:06:45.004Z,4.88
2023-04-13T22:09:13.459Z,10.05
2023-04-13T22:11:41.341Z,9.20
2023-04-13T22:14:10.330Z,8.30
2023-04-13T22:16:37.954Z,9.07
2023-04-13T22:19:05.580Z,8.95
2023-04-13T22:21:35.862Z,10.07
2023-04-13T22:24:03.604Z,7.85
2023-04-13T22:26:31.268Z,8.25
2023-04-13T22:28:59.340Z,13.48
2023-04-13T22:31:28.612Z,9.13
2023-04-13T22:33:56.438Z,9.82
2023-04-13T22:36:24.100Z,7.75
2023-04-13T22:38:52.013Z,8.00
2023-04-13T22:41:19.844Z,6.65
2023-04-13T22:43:47.518Z,8.52
2023-04-13T22:46:15.182Z,6.63
2023-04-13T22:48:44.151Z,8.13
2023-04-13T22:51:12.131Z,7.28
2023-04-13T22:53:39.678Z,7.15
2023-04-13T22:56:07.724Z,8.80
2023-04-13T22:58:35.328Z,10.82
2023-04-13T23:01:03.175Z,8.10
2023-04-13T23:03:31.008Z,9.52
2023-04-13T23:06:00.381Z,10.55
2023-04-13T23:08:29.227Z,9.50
2023-04-13T23:10:56.874Z,8.63
2023-04-13T23:13:24.476Z,9.07
2023-04-13T23:16:00.067Z,9.63
2023-04-13T23:18:28.140Z,8.63
2023-04-13T23:20:55.908Z,7.88
2023-04-13T23:23:24.884Z,9.98
2023-04-13T23:25:52.935Z,7.22
2023-04-13T23:28:20.537Z,6.43
2023-04-13T23:30:48.220Z,8.98
2023-04-13T23:33:15.929Z,9.50
2023-04-13T23:35:43.653Z,6.05
2023-04-13T23:38:11.240Z,8.73
2023-04-13T23:40:40.256Z,9.63
2023-04-13T23:43:07.972Z,9.70
2023-04-13T23:45:35.663Z,11.00
2023-04-13T23:48:03.893Z,8.05
2023-04-13T23:50:31.637Z,8.60
2023-04-13T23:52:59.656Z,11.57
2023-04-13T23:55:28.534Z,8.90
2023-04-13T23:57:57.729Z,8.50
